sensor_id;sensor_type;location;lat;lon;timestamp;pressure;altitude;pressure_sealevel;temperature;humidity
12536;BME280;6334;48.696;2.114;2024-02-26T00:01:20;97189.58;;;8.77;100.00
12536;BME280;6334;48.696;2.114;2024-02-26T00:03:50;97188.10;;;8.73;100.00
12536;BME280;6334;48.696;2.114;2024-02-26T00:06:20;97195.10;;;8.61;100.00
12536;BME280;6334;48.696;2.114;2024-02-26T00:08:51;97192.13;;;8.78;100.00
12536;BME280;6334;48.696;2.114;2024-02-26T00:11:22;97196.87;;;8.55;100.00
12536;BME280;6334;48.696;2.114;2024-02-26T00:13:53;97198.10;;;8.65;100.00
12536;BME280;6334;48.696;2.114;2024-02-26T00:16:25;97201.99;;;8.47;100.00
12536;BME280;6334;48.696;2.114;2024-02-26T00:18:55;97202.86;;;8.71;100.00
12536;BME280;6334;48.696;2.114;2024-02-26T00:21:27;97204.72;;;8.81;100.00
12536;BME280;6334;48.696;2.114;2024-02-26T00:23:57;97205.48;;;8.59;100.00
12536;BME280;6334;48.696;2.114;2024-02-26T00:26:28;97210.91;;;8.64;100.00
12536;BME280;6334;48.696;2.114;2024-02-26T00:28:58;97215.51;;;8.65;100.00
12536;BME280;6334;48.696;2.114;2024-02-26T00:31:29;97216.17;;;8.65;100.00
12536;BME280;6334;48.696;2.114;2024-02-26T00:34:00;97214.50;;;8.69;100.00
12536;BME280;6334;48.696;2.114;2024-02-26T00:36:30;97213.86;;;8.63;100.00
12536;BME280;6334;48.696;2.114;2024-02-26T00:39:00;97208.44;;;8.68;100.00
12536;BME280;6334;48.696;2.114;2024-02-26T00:41:31;97218.16;;;8.67;100.00
12536;BME280;6334;48.696;2.114;2024-02-26T00:44:01;97218.37;;;8.71;100.00
12536;BME280;6334;48.696;2.114;2024-02-26T00:46:32;97218.30;;;8.62;100.00
12536;BME280;6334;48.696;2.114;2024-02-26T00:49:02;97217.59;;;8.91;100.00
12536;BME280;6334;48.696;2.114;2024-02-26T00:51:33;97220.19;;;8.96;100.00
12536;BME280;6334;48.696;2.114;2024-02-26T00:54:03;97219.83;;;8.85;100.00
12536;BME280;6334;48.696;2.114;2024-02-26T00:56:33;97225.34;;;8.81;100.00
12536;BME280;6334;48.696;2.114;2024-02-26T00:59:04;97228.34;;;8.87;100.00
12536;BME280;6334;48.696;2.114;2024-02-26T01:01:34;97224.06;;;8.87;100.00
12536;BME280;6334;48.696;2.114;2024-02-26T01:04:05;97235.59;;;8.81;100.00
12536;BME280;6334;48.696;2.114;2024-02-26T01:06:35;97233.44;;;8.80;100.00
12536;BME280;6334;48.696;2.114;2024-02-26T01:09:06;97236.89;;;8.89;100.00
12536;BME280;6334;48.696;2.114;2024-02-26T01:11:36;97237.19;;;8.68;100.00
12536;BME280;6334;48.696;2.114;2024-02-26T01:14:07;97239.77;;;8.69;100.00
12536;BME280;6334;48.696;2.114;2024-02-26T01:16:37;97244.97;;;8.83;100.00
12536;BME280;6334;48.696;2.114;2024-02-26T01:19:08;97244.53;;;8.72;100.00
12536;BME280;6334;48.696;2.114;2024-02-26T01:21:38;97245.98;;;8.76;100.00
12536;BME280;6334;48.696;2.114;2024-02-26T01:24:09;97244.08;;;8.94;100.00
12536;BME280;6334;48.696;2.114;2024-02-26T01:26:39;97244.16;;;8.78;100.00
12536;BME280;6334;48.696;2.114;2024-02-26T01:29:10;97246.55;;;8.72;100.00
12536;BME280;6334;48.696;2.114;2024-02-26T01:31:40;97252.07;;;8.80;100.00
12536;BME280;6334;48.696;2.114;2024-02-26T01:34:10;97250.53;;;8.54;100.00
12536;BME280;6334;48.696;2.114;2024-02-26T01:36:41;97253.42;;;8.73;100.00
12536;BME280;6334;48.696;2.114;2024-02-26T01:39:11;97244.02;;;8.65;100.00
12536;BME280;6334;48.696;2.114;2024-02-26T01:41:42;97260.88;;;8.56;100.00
12536;BME280;6334;48.696;2.114;2024-02-26T01:44:13;97256.56;;;8.73;100.00
12536;BME280;6334;48.696;2.114;2024-02-26T01:46:43;97261.67;;;8.53;100.00
12536;BME280;6334;48.696;2.114;2024-02-26T01:49:13;97262.03;;;8.77;100.00
12536;BME280;6334;48.696;2.114;2024-02-26T01:51:44;97262.08;;;8.67;100.00
12536;BME280;6334;48.696;2.114;2024-02-26T01:54:14;97269.09;;;8.60;100.00
12536;BME280;6334;48.696;2.114;2024-02-26T01:56:45;97263.13;;;8.59;100.00
12536;BME280;6334;48.696;2.114;2024-02-26T01:59:15;97272.14;;;8.51;100.00
12536;BME280;6334;48.696;2.114;2024-02-26T02:01:47;97266.48;;;8.50;100.00
12536;BME280;6334;48.696;2.114;2024-02-26T02:04:16;97268.90;;;8.49;100.00
12536;BME280;6334;48.696;2.114;2024-02-26T02:06:47;97269.20;;;8.52;100.00
12536;BME280;6334;48.696;2.114;2024-02-26T02:09:17;97275.11;;;8.68;100.00
12536;BME280;6334;48.696;2.114;2024-02-26T02:11:48;97274.77;;;8.75;100.00
12536;BME280;6334;48.696;2.114;2024-02-26T02:14:18;97272.02;;;8.69;100.00
12536;BME280;6334;48.696;2.114;2024-02-26T02:16:49;97269.01;;;8.42;100.00
12536;BME280;6334;48.696;2.114;2024-02-26T02:19:19;97273.14;;;8.54;100.00
12536;BME280;6334;48.696;2.114;2024-02-26T02:21:51;97279.27;;;8.58;100.00
12536;BME280;6334;48.696;2.114;2024-02-26T02:24:23;97280.77;;;8.41;100.00
12536;BME280;6334;48.696;2.114;2024-02-26T02:26:53;97279.42;;;8.36;100.00
12536;BME280;6334;48.696;2.114;2024-02-26T02:29:24;97287.22;;;8.61;100.00
12536;BME280;6334;48.696;2.114;2024-02-26T02:31:54;97289.58;;;8.55;100.00
12536;BME280;6334;48.696;2.114;2024-02-26T02:34:25;97292.23;;;8.50;100.00
12536;BME280;6334;48.696;2.114;2024-02-26T02:36:55;97293.72;;;8.61;100.00
12536;BME280;6334;48.696;2.114;2024-02-26T02:39:25;97295.28;;;8.77;100.00
12536;BME280;6334;48.696;2.114;2024-02-26T02:41:56;97287.43;;;8.74;100.00
12536;BME280;6334;48.696;2.114;2024-02-26T02:44:26;97288.92;;;8.90;100.00
12536;BME280;6334;48.696;2.114;2024-02-26T02:46:58;97287.01;;;8.69;100.00
12536;BME280;6334;48.696;2.114;2024-02-26T02:49:28;97288.17;;;8.66;100.00
12536;BME280;6334;48.696;2.114;2024-02-26T02:51:59;97282.17;;;8.33;100.00
12536;BME280;6334;48.696;2.114;2024-02-26T02:54:29;97292.40;;;8.48;100.00
12536;BME280;6334;48.696;2.114;2024-02-26T02:57:00;97293.41;;;8.62;100.00
12536;BME280;6334;48.696;2.114;2024-02-26T02:59:30;97288.48;;;8.76;99.48
12536;BME280;6334;48.696;2.114;2024-02-26T03:02:01;97288.72;;;8.54;100.00
12536;BME280;6334;48.696;2.114;2024-02-26T03:04:31;97283.12;;;8.67;99.80
12536;BME280;6334;48.696;2.114;2024-02-26T03:07:02;97291.30;;;8.80;99.16
12536;BME280;6334;48.696;2.114;2024-02-26T03:09:32;97301.04;;;8.85;98.98
12536;BME280;6334;48.696;2.114;2024-02-26T03:12:03;97300.82;;;8.77;99.46
12536;BME280;6334;48.696;2.114;2024-02-26T03:14:33;97306.13;;;8.71;99.49
12536;BME280;6334;48.696;2.114;2024-02-26T03:17:04;97308.28;;;8.78;99.14
12536;BME280;6334;48.696;2.114;2024-02-26T03:19:34;97309.64;;;8.79;99.43
12536;BME280;6334;48.696;2.114;2024-02-26T03:22:05;97304.89;;;8.80;99.02
12536;BME280;6334;48.696;2.114;2024-02-26T03:24:35;97311.48;;;8.61;100.00
12536;BME280;6334;48.696;2.114;2024-02-26T03:27:06;97306.73;;;8.73;99.58
12536;BME280;6334;48.696;2.114;2024-02-26T03:29:39;97307.73;;;8.84;99.13
12536;BME280;6334;48.696;2.114;2024-02-26T03:32:07;97309.47;;;8.81;99.61
12536;BME280;6334;48.696;2.114;2024-02-26T03:34:37;97312.13;;;8.72;99.78
12536;BME280;6334;48.696;2.114;2024-02-26T03:37:07;97316.13;;;8.86;99.22
12536;BME280;6334;48.696;2.114;2024-02-26T03:39:38;97322.48;;;8.90;99.09
12536;BME280;6334;48.696;2.114;2024-02-26T03:42:08;97323.50;;;8.77;99.92
12536;BME280;6334;48.696;2.114;2024-02-26T03:44:39;97320.80;;;8.60;100.00
12536;BME280;6334;48.696;2.114;2024-02-26T03:47:09;97328.99;;;8.87;99.24
12536;BME280;6334;48.696;2.114;2024-02-26T03:49:40;97326.55;;;8.81;99.22
12536;BME280;6334;48.696;2.114;2024-02-26T03:52:10;97334.59;;;8.84;99.54
12536;BME280;6334;48.696;2.114;2024-02-26T03:54:41;97334.75;;;8.90;99.33
12536;BME280;6334;48.696;2.114;2024-02-26T03:57:11;97336.88;;;8.63;100.00
12536;BME280;6334;48.696;2.114;2024-02-26T03:59:42;97339.34;;;8.77;99.96
12536;BME280;6334;48.696;2.114;2024-02-26T04:02:12;97340.45;;;8.74;99.90
12536;BME280;6334;48.696;2.114;2024-02-26T04:04:43;97348.58;;;8.95;99.07
12536;BME280;6334;48.696;2.114;2024-02-26T04:07:13;97351.77;;;8.94;98.88
12536;BME280;6334;48.696;2.114;2024-02-26T04:09:44;97347.23;;;8.85;99.03
12536;BME280;6334;48.696;2.114;2024-02-26T04:12:14;97345.91;;;8.77;99.08
12536;BME280;6334;48.696;2.114;2024-02-26T04:14:44;97354.00;;;8.86;98.74
12536;BME280;6334;48.696;2.114;2024-02-26T04:17:15;97352.42;;;8.96;98.65
12536;BME280;6334;48.696;2.114;2024-02-26T04:19:45;97358.80;;;8.88;99.35
12536;BME280;6334;48.696;2.114;2024-02-26T04:22:16;97356.65;;;8.84;98.93
12536;BME280;6334;48.696;2.114;2024-02-26T04:24:46;97363.36;;;8.62;99.81
12536;BME280;6334;48.696;2.114;2024-02-26T04:27:17;97366.92;;;8.92;99.00
12536;BME280;6334;48.696;2.114;2024-02-26T04:29:47;97373.06;;;8.75;99.69
12536;BME280;6334;48.696;2.114;2024-02-26T04:32:18;97379.77;;;8.76;99.08
12536;BME280;6334;48.696;2.114;2024-02-26T04:34:48;97377.67;;;8.78;99.32
12536;BME280;6334;48.696;2.114;2024-02-26T04:37:19;97382.16;;;8.60;99.77
12536;BME280;6334;48.696;2.114;2024-02-26T04:39:49;97379.06;;;8.79;98.80
12536;BME280;6334;48.696;2.114;2024-02-26T04:42:20;97383.41;;;8.76;98.86
12536;BME280;6334;48.696;2.114;2024-02-26T04:44:50;97387.23;;;8.61;99.12
12536;BME280;6334;48.696;2.114;2024-02-26T04:47:21;97383.16;;;8.76;99.13
12536;BME280;6334;48.696;2.114;2024-02-26T04:49:51;97377.58;;;8.78;98.67
12536;BME280;6334;48.696;2.114;2024-02-26T04:52:22;97385.50;;;8.75;98.88
12536;BME280;6334;48.696;2.114;2024-02-26T04:54:52;97392.80;;;8.81;98.66
12536;BME280;6334;48.696;2.114;2024-02-26T04:57:22;97398.47;;;8.66;99.52
12536;BME280;6334;48.696;2.114;2024-02-26T04:59:53;97402.31;;;8.81;98.63
12536;BME280;6334;48.696;2.114;2024-02-26T05:02:23;97408.34;;;8.71;98.93
12536;BME280;6334;48.696;2.114;2024-02-26T05:04:54;97409.94;;;8.88;98.45
12536;BME280;6334;48.696;2.114;2024-02-26T05:07:26;97416.47;;;8.78;98.15
12536;BME280;6334;48.696;2.114;2024-02-26T05:09:56;97411.33;;;8.67;98.36
12536;BME280;6334;48.696;2.114;2024-02-26T05:12:26;97415.18;;;8.86;98.01
12536;BME280;6334;48.696;2.114;2024-02-26T05:14:56;97419.59;;;8.93;97.14
12536;BME280;6334;48.696;2.114;2024-02-26T05:17:26;97424.56;;;8.88;97.32
12536;BME280;6334;48.696;2.114;2024-02-26T05:19:57;97428.84;;;8.81;97.45
12536;BME280;6334;48.696;2.114;2024-02-26T05:22:27;97434.58;;;8.79;97.43
12536;BME280;6334;48.696;2.114;2024-02-26T05:24:58;97437.33;;;8.86;96.72
12536;BME280;6334;48.696;2.114;2024-02-26T05:27:28;97435.47;;;8.92;96.23
12536;BME280;6334;48.696;2.114;2024-02-26T05:29:59;97442.20;;;8.84;95.60
12536;BME280;6334;48.696;2.114;2024-02-26T05:32:29;97447.08;;;8.79;96.45
12536;BME280;6334;48.696;2.114;2024-02-26T05:35:00;97450.36;;;8.82;96.11
12536;BME280;6334;48.696;2.114;2024-02-26T05:37:30;97457.09;;;8.80;96.04
12536;BME280;6334;48.696;2.114;2024-02-26T05:40:02;97458.31;;;8.76;96.25
12536;BME280;6334;48.696;2.114;2024-02-26T05:42:32;97464.05;;;8.75;96.91
12536;BME280;6334;48.696;2.114;2024-02-26T05:45:03;97466.67;;;8.73;96.94
12536;BME280;6334;48.696;2.114;2024-02-26T05:47:33;97465.61;;;8.82;96.58
12536;BME280;6334;48.696;2.114;2024-02-26T05:50:04;97465.72;;;8.87;95.92
12536;BME280;6334;48.696;2.114;2024-02-26T05:52:34;97470.66;;;8.80;96.21
12536;BME280;6334;48.696;2.114;2024-02-26T05:55:05;97471.41;;;8.75;96.94
12536;BME280;6334;48.696;2.114;2024-02-26T05:57:35;97475.47;;;8.62;97.55
12536;BME280;6334;48.696;2.114;2024-02-26T06:00:06;97475.02;;;8.65;97.81
12536;BME280;6334;48.696;2.114;2024-02-26T06:02:36;97485.00;;;8.73;97.64
12536;BME280;6334;48.696;2.114;2024-02-26T06:05:07;97479.48;;;8.63;98.30
12536;BME280;6334;48.696;2.114;2024-02-26T06:07:37;97486.60;;;8.78;97.39
12536;BME280;6334;48.696;2.114;2024-02-26T06:10:08;97491.19;;;8.50;98.84
12536;BME280;6334;48.696;2.114;2024-02-26T06:12:38;97498.45;;;8.69;98.00
12536;BME280;6334;48.696;2.114;2024-02-26T06:15:09;97505.11;;;8.61;97.77
12536;BME280;6334;48.696;2.114;2024-02-26T06:17:39;97507.50;;;8.66;97.75
12536;BME280;6334;48.696;2.114;2024-02-26T06:20:09;97520.30;;;8.77;97.12
12536;BME280;6334;48.696;2.114;2024-02-26T06:22:40;97521.76;;;8.66;97.60
12536;BME280;6334;48.696;2.114;2024-02-26T06:25:10;97522.94;;;8.75;97.16
12536;BME280;6334;48.696;2.114;2024-02-26T06:27:41;97527.84;;;8.70;97.08
12536;BME280;6334;48.696;2.114;2024-02-26T06:30:11;97534.21;;;8.62;97.18
12536;BME280;6334;48.696;2.114;2024-02-26T06:32:42;97537.97;;;8.78;96.71
12536;BME280;6334;48.696;2.114;2024-02-26T06:35:12;97537.98;;;8.89;96.25
12536;BME280;6334;48.696;2.114;2024-02-26T06:37:43;97541.12;;;8.79;96.34
12536;BME280;6334;48.696;2.114;2024-02-26T06:40:13;97542.10;;;8.75;96.59
12536;BME280;6334;48.696;2.114;2024-02-26T06:42:44;97544.27;;;8.66;97.53
12536;BME280;6334;48.696;2.114;2024-02-26T06:45:15;97547.27;;;8.52;98.15
12536;BME280;6334;48.696;2.114;2024-02-26T06:47:46;97548.63;;;9.03;100.00
12536;BME280;6334;48.696;2.114;2024-02-26T06:50:16;97557.67;;;9.55;100.00
12536;BME280;6334;48.696;2.114;2024-02-26T06:52:47;97562.66;;;8.60;100.00
12536;BME280;6334;48.696;2.114;2024-02-26T06:55:17;97568.09;;;8.72;99.16
12536;BME280;6334;48.696;2.114;2024-02-26T06:57:47;97571.09;;;8.78;98.11
12536;BME280;6334;48.696;2.114;2024-02-26T07:00:17;97574.12;;;8.63;97.95
12536;BME280;6334;48.696;2.114;2024-02-26T07:02:47;97579.03;;;8.85;96.89
12536;BME280;6334;48.696;2.114;2024-02-26T07:05:18;97588.51;;;8.70;97.47
12536;BME280;6334;48.696;2.114;2024-02-26T07:07:48;97585.42;;;8.61;98.84
12536;BME280;6334;48.696;2.114;2024-02-26T07:10:19;97586.23;;;8.82;97.79
12536;BME280;6334;48.696;2.114;2024-02-26T07:12:49;97590.16;;;8.92;97.11
12536;BME280;6334;48.696;2.114;2024-02-26T07:15:20;97591.98;;;8.78;97.51
12536;BME280;6334;48.696;2.114;2024-02-26T07:17:50;97599.34;;;8.76;97.60
12536;BME280;6334;48.696;2.114;2024-02-26T07:20:21;97599.92;;;8.82;96.83
12536;BME280;6334;48.696;2.114;2024-02-26T07:22:51;97604.41;;;8.98;96.11
12536;BME280;6334;48.696;2.114;2024-02-26T07:25:22;97608.13;;;8.99;96.13
12536;BME280;6334;48.696;2.114;2024-02-26T07:27:52;97613.26;;;8.74;97.19
12536;BME280;6334;48.696;2.114;2024-02-26T07:30:23;97620.14;;;8.99;96.15
12536;BME280;6334;48.696;2.114;2024-02-26T07:32:53;97621.17;;;9.02;96.05
12536;BME280;6334;48.696;2.114;2024-02-26T07:35:23;97624.99;;;9.05;96.42
12536;BME280;6334;48.696;2.114;2024-02-26T07:37:54;97626.45;;;9.07;96.31
12536;BME280;6334;48.696;2.114;2024-02-26T07:40:24;97632.83;;;9.07;96.59
12536;BME280;6334;48.696;2.114;2024-02-26T07:42:55;97634.34;;;9.02;96.74
12536;BME280;6334;48.696;2.114;2024-02-26T07:45:25;97643.30;;;9.00;96.83
12536;BME280;6334;48.696;2.114;2024-02-26T07:47:56;97642.88;;;8.95;97.28
12536;BME280;6334;48.696;2.114;2024-02-26T07:50:26;97643.17;;;8.96;97.49
12536;BME280;6334;48.696;2.114;2024-02-26T07:52:57;97649.73;;;8.77;98.16
12536;BME280;6334;48.696;2.114;2024-02-26T07:55:26;97646.74;;;9.01;97.74
12536;BME280;6334;48.696;2.114;2024-02-26T07:57:57;97652.16;;;9.05;97.63
12536;BME280;6334;48.696;2.114;2024-02-26T08:00:27;97650.98;;;9.10;97.19
12536;BME280;6334;48.696;2.114;2024-02-26T08:02:58;97654.26;;;8.79;99.07
12536;BME280;6334;48.696;2.114;2024-02-26T08:05:28;97660.45;;;9.03;98.01
12536;BME280;6334;48.696;2.114;2024-02-26T08:07:59;97661.67;;;9.14;97.24
12536;BME280;6334;48.696;2.114;2024-02-26T08:10:29;97668.92;;;9.18;97.63
12536;BME280;6334;48.696;2.114;2024-02-26T08:12:59;97674.44;;;9.33;96.82
12536;BME280;6334;48.696;2.114;2024-02-26T08:15:33;97673.36;;;9.15;98.57
12536;BME280;6334;48.696;2.114;2024-02-26T08:18:03;97677.72;;;9.31;97.57
12536;BME280;6334;48.696;2.114;2024-02-26T08:20:34;97681.77;;;9.36;97.17
12536;BME280;6334;48.696;2.114;2024-02-26T08:23:04;97684.16;;;9.36;97.01
12536;BME280;6334;48.696;2.114;2024-02-26T08:25:35;97686.77;;;9.28;98.14
12536;BME280;6334;48.696;2.114;2024-02-26T08:28:05;97686.42;;;9.23;98.45
12536;BME280;6334;48.696;2.114;2024-02-26T08:30:35;97689.70;;;9.35;97.99
12536;BME280;6334;48.696;2.114;2024-02-26T08:33:06;97687.23;;;9.40;97.77
12536;BME280;6334;48.696;2.114;2024-02-26T08:35:36;97695.20;;;9.27;99.03
12536;BME280;6334;48.696;2.114;2024-02-26T08:38:07;97698.11;;;9.36;98.57
12536;BME280;6334;48.696;2.114;2024-02-26T08:40:36;97704.77;;;9.47;98.10
12536;BME280;6334;48.696;2.114;2024-02-26T08:43:07;97709.90;;;9.40;98.37
12536;BME280;6334;48.696;2.114;2024-02-26T08:45:37;97706.81;;;9.27;98.63
12536;BME280;6334;48.696;2.114;2024-02-26T08:48:08;97715.56;;;9.38;98.17
12536;BME280;6334;48.696;2.114;2024-02-26T08:50:38;97720.74;;;9.37;98.38
12536;BME280;6334;48.696;2.114;2024-02-26T08:53:09;97724.91;;;9.41;98.88
12536;BME280;6334;48.696;2.114;2024-02-26T08:55:39;97731.56;;;9.46;98.48
12536;BME280;6334;48.696;2.114;2024-02-26T08:58:10;97730.81;;;9.40;99.25
12536;BME280;6334;48.696;2.114;2024-02-26T09:00:40;97740.52;;;9.47;99.00
12536;BME280;6334;48.696;2.114;2024-02-26T09:03:10;97740.58;;;9.44;99.01
12536;BME280;6334;48.696;2.114;2024-02-26T09:05:41;97739.34;;;9.31;99.27
12536;BME280;6334;48.696;2.114;2024-02-26T09:08:11;97748.14;;;9.12;100.00
12536;BME280;6334;48.696;2.114;2024-02-26T09:10:42;97748.73;;;9.21;100.00
12536;BME280;6334;48.696;2.114;2024-02-26T09:13:13;97757.91;;;9.33;100.00
12536;BME280;6334;48.696;2.114;2024-02-26T09:15:43;97757.41;;;9.43;99.32
12536;BME280;6334;48.696;2.114;2024-02-26T09:18:13;97762.05;;;9.41;99.45
12536;BME280;6334;48.696;2.114;2024-02-26T09:20:44;97765.83;;;9.40;99.59
12536;BME280;6334;48.696;2.114;2024-02-26T09:23:16;97768.19;;;9.16;100.00
12536;BME280;6334;48.696;2.114;2024-02-26T09:25:46;97775.11;;;9.27;100.00
12536;BME280;6334;48.696;2.114;2024-02-26T09:28:16;97774.97;;;9.42;99.48
12536;BME280;6334;48.696;2.114;2024-02-26T09:30:46;97785.83;;;9.42;100.00
12536;BME280;6334;48.696;2.114;2024-02-26T09:33:17;97783.70;;;9.34;99.89
12536;BME280;6334;48.696;2.114;2024-02-26T09:35:47;97791.95;;;9.31;100.00
12536;BME280;6334;48.696;2.114;2024-02-26T09:38:18;97799.77;;;9.44;99.72
12536;BME280;6334;48.696;2.114;2024-02-26T09:40:48;97802.70;;;9.55;99.78
12536;BME280;6334;48.696;2.114;2024-02-26T09:43:21;97806.97;;;9.60;99.70
12536;BME280;6334;48.696;2.114;2024-02-26T09:45:53;97807.99;;;9.49;99.89
12536;BME280;6334;48.696;2.114;2024-02-26T09:48:22;97815.48;;;9.66;99.39
12536;BME280;6334;48.696;2.114;2024-02-26T09:50:53;97819.54;;;9.67;99.26
12536;BME280;6334;48.696;2.114;2024-02-26T09:53:23;97818.80;;;9.65;99.16
12536;BME280;6334;48.696;2.114;2024-02-26T09:55:54;97821.97;;;9.68;99.81
12536;BME280;6334;48.696;2.114;2024-02-26T09:58:24;97824.09;;;9.80;99.40
12536;BME280;6334;48.696;2.114;2024-02-26T10:00:56;97830.59;;;9.77;99.56
12536;BME280;6334;48.696;2.114;2024-02-26T10:03:29;97839.05;;;9.65;100.00
12536;BME280;6334;48.696;2.114;2024-02-26T10:05:58;97843.05;;;9.51;99.82
12536;BME280;6334;48.696;2.114;2024-02-26T10:08:29;97849.59;;;9.59;100.00
12536;BME280;6334;48.696;2.114;2024-02-26T10:10:59;97856.88;;;9.71;100.00
12536;BME280;6334;48.696;2.114;2024-02-26T10:13:30;97857.23;;;9.60;100.00
12536;BME280;6334;48.696;2.114;2024-02-26T10:16:00;97863.97;;;9.67;100.00
12536;BME280;6334;48.696;2.114;2024-02-26T10:18:49;97858.69;;;9.73;100.00
12536;BME280;6334;48.696;2.114;2024-02-26T10:21:22;97864.88;;;9.80;100.00
12536;BME280;6334;48.696;2.114;2024-02-26T10:23:52;97871.78;;;9.85;100.00
12536;BME280;6334;48.696;2.114;2024-02-26T10:26:22;97880.75;;;9.87;99.72
12536;BME280;6334;48.696;2.114;2024-02-26T10:28:52;97882.31;;;9.76;100.00
12536;BME280;6334;48.696;2.114;2024-02-26T10:31:23;97880.84;;;9.85;99.98
12536;BME280;6334;48.696;2.114;2024-02-26T10:33:55;97883.11;;;9.86;100.00
12536;BME280;6334;48.696;2.114;2024-02-26T10:36:25;97887.81;;;10.02;100.00
12536;BME280;6334;48.696;2.114;2024-02-26T10:38:54;97880.36;;;10.00;99.70
12536;BME280;6334;48.696;2.114;2024-02-26T10:41:25;97898.45;;;9.94;99.31
12536;BME280;6334;48.696;2.114;2024-02-26T10:43:55;97900.53;;;9.89;99.50
12536;BME280;6334;48.696;2.114;2024-02-26T10:46:26;97909.33;;;10.08;99.04
12536;BME280;6334;48.696;2.114;2024-02-26T10:48:56;97908.34;;;10.09;99.19
12536;BME280;6334;48.696;2.114;2024-02-26T10:51:27;97909.81;;;10.05;99.95
12536;BME280;6334;48.696;2.114;2024-02-26T10:53:58;97914.73;;;9.93;100.00
12536;BME280;6334;48.696;2.114;2024-02-26T10:56:28;97918.03;;;9.87;99.62
12536;BME280;6334;48.696;2.114;2024-02-26T10:58:58;97923.05;;;9.79;100.00
12536;BME280;6334;48.696;2.114;2024-02-26T11:01:29;97929.92;;;9.87;100.00
12536;BME280;6334;48.696;2.114;2024-02-26T11:03:59;97932.38;;;9.88;100.00
12536;BME280;6334;48.696;2.114;2024-02-26T11:06:29;97939.89;;;9.89;100.00
12536;BME280;6334;48.696;2.114;2024-02-26T11:09:01;97939.89;;;9.89;100.00
12536;BME280;6334;48.696;2.114;2024-02-26T11:11:33;97941.54;;;9.86;99.90
12536;BME280;6334;48.696;2.114;2024-02-26T11:14:04;97943.23;;;9.94;100.00
12536;BME280;6334;48.696;2.114;2024-02-26T11:16:34;97947.72;;;9.94;100.00
12536;BME280;6334;48.696;2.114;2024-02-26T11:19:05;97951.11;;;10.02;100.00
12536;BME280;6334;48.696;2.114;2024-02-26T11:21:35;97953.27;;;10.02;100.00
12536;BME280;6334;48.696;2.114;2024-02-26T11:24:06;97951.73;;;9.99;100.00
12536;BME280;6334;48.696;2.114;2024-02-26T11:26:37;97956.11;;;9.96;100.00
12536;BME280;6334;48.696;2.114;2024-02-26T11:29:07;97954.38;;;10.05;100.00
12536;BME280;6334;48.696;2.114;2024-02-26T11:31:38;97955.97;;;10.21;100.00
12536;BME280;6334;48.696;2.114;2024-02-26T11:34:08;97957.39;;;10.09;100.00
12536;BME280;6334;48.696;2.114;2024-02-26T11:36:38;97960.09;;;10.06;100.00
12536;BME280;6334;48.696;2.114;2024-02-26T11:39:08;97963.33;;;10.00;100.00
12536;BME280;6334;48.696;2.114;2024-02-26T11:41:39;97967.11;;;10.05;100.00
12536;BME280;6334;48.696;2.114;2024-02-26T11:44:09;97970.38;;;9.98;100.00
12536;BME280;6334;48.696;2.114;2024-02-26T11:46:40;97972.14;;;9.92;100.00
12536;BME280;6334;48.696;2.114;2024-02-26T11:49:29;97972.58;;;9.94;100.00
12536;BME280;6334;48.696;2.114;2024-02-26T11:51:58;97967.89;;;10.02;100.00
12536;BME280;6334;48.696;2.114;2024-02-26T11:54:44;97971.80;;;10.00;100.00
12536;BME280;6334;48.696;2.114;2024-02-26T12:00:18;97974.35;;;9.71;100.00
12536;BME280;6334;48.696;2.114;2024-02-26T12:02:46;97973.63;;;9.61;100.00
12536;BME280;6334;48.696;2.114;2024-02-26T12:05:22;97976.33;;;9.32;100.00
12536;BME280;6334;48.696;2.114;2024-02-26T12:07:54;97983.03;;;9.41;100.00
12536;BME280;6334;48.696;2.114;2024-02-26T12:10:27;97991.73;;;9.28;100.00
12536;BME280;6334;48.696;2.114;2024-02-26T12:12:58;98005.31;;;9.20;100.00
12536;BME280;6334;48.696;2.114;2024-02-26T12:15:31;97994.98;;;9.10;100.00
12536;BME280;6334;48.696;2.114;2024-02-26T12:18:01;97995.83;;;9.01;100.00
12536;BME280;6334;48.696;2.114;2024-02-26T12:20:31;97997.58;;;8.96;100.00
12536;BME280;6334;48.696;2.114;2024-02-26T12:23:02;98000.98;;;9.02;100.00
12536;BME280;6334;48.696;2.114;2024-02-26T12:25:32;98010.16;;;8.93;100.00
12536;BME280;6334;48.696;2.114;2024-02-26T12:28:03;98017.83;;;9.09;100.00
12536;BME280;6334;48.696;2.114;2024-02-26T12:30:33;98016.28;;;9.07;100.00
12536;BME280;6334;48.696;2.114;2024-02-26T12:33:04;98024.33;;;8.91;100.00
12536;BME280;6334;48.696;2.114;2024-02-26T12:35:34;98038.38;;;8.90;99.84
12536;BME280;6334;48.696;2.114;2024-02-26T12:38:05;98031.50;;;9.05;99.27
12536;BME280;6334;48.696;2.114;2024-02-26T12:40:35;98038.28;;;8.79;99.97
12536;BME280;6334;48.696;2.114;2024-02-26T12:43:06;98037.92;;;8.70;99.30
12536;BME280;6334;48.696;2.114;2024-02-26T12:45:36;98047.61;;;8.64;99.91
12536;BME280;6334;48.696;2.114;2024-02-26T12:48:06;98047.71;;;8.84;100.00
12536;BME280;6334;48.696;2.114;2024-02-26T12:50:37;98064.59;;;8.53;100.00
12536;BME280;6334;48.696;2.114;2024-02-26T12:53:07;98068.32;;;8.58;100.00
12536;BME280;6334;48.696;2.114;2024-02-26T12:55:38;98065.70;;;8.70;100.00
12536;BME280;6334;48.696;2.114;2024-02-26T12:58:08;98076.77;;;8.51;100.00
12536;BME280;6334;48.696;2.114;2024-02-26T13:00:39;98083.05;;;8.36;100.00
12536;BME280;6334;48.696;2.114;2024-02-26T13:03:09;98084.25;;;8.43;99.62
12536;BME280;6334;48.696;2.114;2024-02-26T13:05:39;98086.81;;;8.57;100.00
12536;BME280;6334;48.696;2.114;2024-02-26T13:08:09;98088.41;;;8.47;100.00
12536;BME280;6334;48.696;2.114;2024-02-26T13:10:40;98090.73;;;8.38;100.00
12536;BME280;6334;48.696;2.114;2024-02-26T13:13:10;98088.25;;;8.41;100.00
12536;BME280;6334;48.696;2.114;2024-02-26T13:15:41;98095.37;;;8.42;99.72
12536;BME280;6334;48.696;2.114;2024-02-26T13:18:10;98097.34;;;8.37;100.00
12536;BME280;6334;48.696;2.114;2024-02-26T13:20:41;98102.86;;;8.16;98.01
12536;BME280;6334;48.696;2.114;2024-02-26T13:23:11;98104.06;;;8.39;99.39
12536;BME280;6334;48.696;2.114;2024-02-26T13:25:42;98111.48;;;8.33;99.74
12536;BME280;6334;48.696;2.114;2024-02-26T13:28:15;98111.69;;;8.34;99.01
12536;BME280;6334;48.696;2.114;2024-02-26T13:30:54;98117.36;;;8.06;100.00
12536;BME280;6334;48.696;2.114;2024-02-26T13:33:25;98119.26;;;8.25;99.38
12536;BME280;6334;48.696;2.114;2024-02-26T13:35:55;98131.62;;;7.98;100.00
12536;BME280;6334;48.696;2.114;2024-02-26T13:38:26;98138.36;;;8.15;99.84